sensor_id;sensor_type;location;lat;lon;timestamp;pressure;altitude;pressure_sealevel;temperature;humidity
65614;BME280;52283;49.292;10.572;2023-05-27T00:02:02;97315.25;;;13.41;78.72
65614;BME280;52283;49.292;10.572;2023-05-27T00:04:29;97307.34;;;13.39;78.65
65614;BME280;52283;49.292;10.572;2023-05-27T00:06:55;97315.63;;;13.60;77.60
65614;BME280;52283;49.292;10.572;2023-05-27T00:09:23;97305.69;;;13.64;76.35
65614;BME280;52283;49.292;10.572;2023-05-27T00:11:50;97300.78;;;13.54;76.75
65614;BME280;52283;49.292;10.572;2023-05-27T00:14:16;97313.19;;;13.36;78.20
65614;BME280;52283;49.292;10.572;2023-05-27T00:16:43;97302.25;;;13.43;77.15
65614;BME280;52283;49.292;10.572;2023-05-27T00:19:10;97300.28;;;13.55;76.69
65614;BME280;52283;49.292;10.572;2023-05-27T00:21:36;97305.09;;;13.49;78.06
65614;BME280;52283;49.292;10.572;2023-05-27T00:24:03;97307.16;;;13.54;77.28
65614;BME280;52283;49.292;10.572;2023-05-27T00:26:31;97300.47;;;13.46;77.70
65614;BME280;52283;49.292;10.572;2023-05-27T00:28:58;97302.22;;;13.38;79.02
65614;BME280;52283;49.292;10.572;2023-05-27T00:31:24;97302.75;;;13.36;78.57
65614;BME280;52283;49.292;10.572;2023-05-27T00:33:51;97298.13;;;13.33;78.54
65614;BME280;52283;49.292;10.572;2023-05-27T00:36:17;97303.53;;;13.05;80.23
65614;BME280;52283;49.292;10.572;2023-05-27T00:38:44;97296.84;;;12.97;79.94
65614;BME280;52283;49.292;10.572;2023-05-27T00:41:10;97303.34;;;13.15;81.22
65614;BME280;52283;49.292;10.572;2023-05-27T00:43:39;97300.97;;;13.07;80.22
65614;BME280;52283;49.292;10.572;2023-05-27T00:46:05;97297.28;;;13.22;80.47
65614;BME280;52283;49.292;10.572;2023-05-27T00:48:31;97295.91;;;13.11;80.75
65614;BME280;52283;49.292;10.572;2023-05-27T00:50:58;97293.88;;;13.12;81.16
65614;BME280;52283;49.292;10.572;2023-05-27T00:53:24;97291.78;;;13.07;81.05
65614;BME280;52283;49.292;10.572;2023-05-27T00:55:53;97292.28;;;13.05;81.38
65614;BME280;52283;49.292;10.572;2023-05-27T00:58:19;97282.88;;;13.08;81.14
65614;BME280;52283;49.292;10.572;2023-05-27T01:00:48;97282.06;;;13.02;81.15
65614;BME280;52283;49.292;10.572;2023-05-27T01:03:14;97278.91;;;12.89;82.42
65614;BME280;52283;49.292;10.572;2023-05-27T01:05:42;97289.44;;;12.63;83.03
65614;BME280;52283;49.292;10.572;2023-05-27T01:08:17;97281.13;;;12.74;83.00
65614;BME280;52283;49.292;10.572;2023-05-27T01:10:50;97282.41;;;12.47;83.28
65614;BME280;52283;49.292;10.572;2023-05-27T01:13:25;97279.25;;;12.65;84.56
65614;BME280;52283;49.292;10.572;2023-05-27T01:15:56;97283.56;;;12.61;83.14
65614;BME280;52283;49.292;10.572;2023-05-27T01:18:27;97278.47;;;12.65;83.16
65614;BME280;52283;49.292;10.572;2023-05-27T01:21:00;97267.88;;;12.74;82.43
65614;BME280;52283;49.292;10.572;2023-05-27T01:23:30;97275.94;;;12.67;81.95
65614;BME280;52283;49.292;10.572;2023-05-27T01:25:56;97270.59;;;12.69;81.56
65614;BME280;52283;49.292;10.572;2023-05-27T01:28:23;97262.19;;;12.69;82.47
65614;BME280;52283;49.292;10.572;2023-05-27T01:30:52;97267.75;;;12.63;81.77
65614;BME280;52283;49.292;10.572;2023-05-27T01:33:25;97272.03;;;12.53;80.97
65614;BME280;52283;49.292;10.572;2023-05-27T01:35:59;97265.69;;;12.58;82.31
65614;BME280;52283;49.292;10.572;2023-05-27T01:38:30;97268.28;;;12.67;80.36
65614;BME280;52283;49.292;10.572;2023-05-27T01:40:57;97270.16;;;12.44;81.42
65614;BME280;52283;49.292;10.572;2023-05-27T01:43:24;97263.97;;;12.35;82.07
65614;BME280;52283;49.292;10.572;2023-05-27T01:45:51;97262.09;;;12.26;82.38
65614;BME280;52283;49.292;10.572;2023-05-27T01:48:18;97269.31;;;12.33;82.44
65614;BME280;52283;49.292;10.572;2023-05-27T01:50:45;97264.63;;;12.24;82.46
65614;BME280;52283;49.292;10.572;2023-05-27T01:53:12;97263.56;;;12.21;81.65
65614;BME280;52283;49.292;10.572;2023-05-27T01:55:40;97260.00;;;12.21;82.34
65614;BME280;52283;49.292;10.572;2023-05-27T01:58:07;97260.47;;;12.14;82.20
65614;BME280;52283;49.292;10.572;2023-05-27T02:00:33;97254.63;;;12.17;81.60
65614;BME280;52283;49.292;10.572;2023-05-27T02:03:00;97265.06;;;12.17;81.97
65614;BME280;52283;49.292;10.572;2023-05-27T02:05:26;97253.59;;;12.15;81.26
65614;BME280;52283;49.292;10.572;2023-05-27T02:07:53;97255.72;;;12.00;82.07
65614;BME280;52283;49.292;10.572;2023-05-27T02:10:20;97247.09;;;12.03;83.61
65614;BME280;52283;49.292;10.572;2023-05-27T02:12:48;97253.63;;;11.95;82.77
65614;BME280;52283;49.292;10.572;2023-05-27T02:15:14;97248.81;;;11.95;82.58
65614;BME280;52283;49.292;10.572;2023-05-27T02:17:41;97250.34;;;11.76;83.48
65614;BME280;52283;49.292;10.572;2023-05-27T02:20:10;97246.22;;;11.71;83.08
65614;BME280;52283;49.292;10.572;2023-05-27T02:22:37;97245.97;;;11.69;83.25
65614;BME280;52283;49.292;10.572;2023-05-27T02:25:04;97241.00;;;11.79;82.48
65614;BME280;52283;49.292;10.572;2023-05-27T02:27:30;97245.81;;;11.78;82.81
65614;BME280;52283;49.292;10.572;2023-05-27T02:29:58;97251.28;;;11.67;82.71
65614;BME280;52283;49.292;10.572;2023-05-27T02:32:25;97256.56;;;11.65;83.71
65614;BME280;52283;49.292;10.572;2023-05-27T02:34:51;97245.88;;;11.64;82.04
65614;BME280;52283;49.292;10.572;2023-05-27T02:37:18;97248.81;;;11.75;82.05
65614;BME280;52283;49.292;10.572;2023-05-27T02:39:44;97250.91;;;11.59;82.52
65614;BME280;52283;49.292;10.572;2023-05-27T02:42:11;97251.41;;;11.58;81.99
65614;BME280;52283;49.292;10.572;2023-05-27T02:44:37;97258.59;;;11.65;82.55
65614;BME280;52283;49.292;10.572;2023-05-27T02:47:06;97243.97;;;11.75;80.79
65614;BME280;52283;49.292;10.572;2023-05-27T02:49:32;97246.66;;;11.84;80.52
65614;BME280;52283;49.292;10.572;2023-05-27T02:51:58;97253.41;;;11.98;80.45
65614;BME280;52283;49.292;10.572;2023-05-27T02:54:25;97241.31;;;11.86;79.08
65614;BME280;52283;49.292;10.572;2023-05-27T02:56:51;97244.41;;;11.88;80.11
65614;BME280;52283;49.292;10.572;2023-05-27T02:59:18;97241.41;;;11.92;79.11
65614;BME280;52283;49.292;10.572;2023-05-27T03:01:44;97244.06;;;11.60;81.42
65614;BME280;52283;49.292;10.572;2023-05-27T03:04:12;97249.81;;;11.72;80.79
65614;BME280;52283;49.292;10.572;2023-05-27T03:06:39;97237.56;;;11.69;79.27
65614;BME280;52283;49.292;10.572;2023-05-27T03:09:05;97243.66;;;11.68;80.60
65614;BME280;52283;49.292;10.572;2023-05-27T03:11:32;97231.47;;;11.71;79.97
65614;BME280;52283;49.292;10.572;2023-05-27T03:13:59;97225.88;;;11.71;79.10
65614;BME280;52283;49.292;10.572;2023-05-27T03:16:25;97233.28;;;11.74;79.15
65614;BME280;52283;49.292;10.572;2023-05-27T03:18:51;97238.81;;;11.68;79.55
65614;BME280;52283;49.292;10.572;2023-05-27T03:21:19;97237.59;;;11.49;78.88
65614;BME280;52283;49.292;10.572;2023-05-27T03:23:46;97238.25;;;11.44;79.65
65614;BME280;52283;49.292;10.572;2023-05-27T03:26:12;97234.78;;;11.49;79.39
65614;BME280;52283;49.292;10.572;2023-05-27T03:28:38;97235.38;;;11.58;80.36
65614;BME280;52283;49.292;10.572;2023-05-27T03:31:05;97241.75;;;11.59;80.59
65614;BME280;52283;49.292;10.572;2023-05-27T03:33:31;97238.59;;;11.72;79.51
65614;BME280;52283;49.292;10.572;2023-05-27T03:35:58;97235.13;;;11.56;79.06
65614;BME280;52283;49.292;10.572;2023-05-27T03:38:26;97231.31;;;11.59;79.61
65614;BME280;52283;49.292;10.572;2023-05-27T03:40:52;97225.41;;;11.52;79.60
65614;BME280;52283;49.292;10.572;2023-05-27T03:43:19;97227.91;;;11.70;77.98
65614;BME280;52283;49.292;10.572;2023-05-27T03:45:45;97234.69;;;11.23;79.44
65614;BME280;52283;49.292;10.572;2023-05-27T03:48:12;97237.28;;;11.06;81.02
65614;BME280;52283;49.292;10.572;2023-05-27T03:50:38;97241.31;;;10.85;82.11
65614;BME280;52283;49.292;10.572;2023-05-27T03:53:04;97231.19;;;10.87;82.19
65614;BME280;52283;49.292;10.572;2023-05-27T03:55:32;97233.25;;;11.27;81.43
65614;BME280;52283;49.292;10.572;2023-05-27T03:57:59;97230.56;;;11.39;81.36
65614;BME280;52283;49.292;10.572;2023-05-27T04:00:25;97235.19;;;11.21;80.45
65614;BME280;52283;49.292;10.572;2023-05-27T04:02:53;97241.47;;;11.16;80.97
65614;BME280;52283;49.292;10.572;2023-05-27T04:05:21;97231.06;;;11.37;80.79
65614;BME280;52283;49.292;10.572;2023-05-27T04:07:47;97228.97;;;11.12;80.62
65614;BME280;52283;49.292;10.572;2023-05-27T04:10:14;97228.75;;;11.15;80.32
65614;BME280;52283;49.292;10.572;2023-05-27T04:12:42;97224.63;;;11.31;80.16
65614;BME280;52283;49.292;10.572;2023-05-27T04:15:09;97226.88;;;11.27;79.74
65614;BME280;52283;49.292;10.572;2023-05-27T04:17:35;97228.31;;;11.02;80.72
65614;BME280;52283;49.292;10.572;2023-05-27T04:20:03;97229.53;;;11.36;81.54
65614;BME280;52283;49.292;10.572;2023-05-27T04:22:38;97234.63;;;11.58;79.20
65614;BME280;52283;49.292;10.572;2023-05-27T04:25:06;97234.19;;;11.65;79.40
65614;BME280;52283;49.292;10.572;2023-05-27T04:27:32;97229.06;;;11.64;79.36
65614;BME280;52283;49.292;10.572;2023-05-27T04:30:00;97238.56;;;11.46;79.54
65614;BME280;52283;49.292;10.572;2023-05-27T04:32:27;97238.06;;;11.47;78.62
65614;BME280;52283;49.292;10.572;2023-05-27T04:34:58;97240.50;;;11.60;79.05
65614;BME280;52283;49.292;10.572;2023-05-27T04:37:25;97234.75;;;11.69;80.09
65614;BME280;52283;49.292;10.572;2023-05-27T04:39:53;97242.66;;;11.71;77.71
65614;BME280;52283;49.292;10.572;2023-05-27T04:42:22;97234.31;;;11.76;78.33
65614;BME280;52283;49.292;10.572;2023-05-27T04:44:48;97237.44;;;11.78;78.21
65614;BME280;52283;49.292;10.572;2023-05-27T04:47:17;97237.66;;;12.01;77.55
65614;BME280;52283;49.292;10.572;2023-05-27T04:49:43;97233.31;;;12.00;77.41
65614;BME280;52283;49.292;10.572;2023-05-27T04:52:11;97237.16;;;12.02;78.24
65614;BME280;52283;49.292;10.572;2023-05-27T04:54:38;97233.44;;;12.11;76.32
65614;BME280;52283;49.292;10.572;2023-05-27T04:57:04;97238.53;;;12.12;78.40
65614;BME280;52283;49.292;10.572;2023-05-27T04:59:31;97238.81;;;12.14;76.10
65614;BME280;52283;49.292;10.572;2023-05-27T05:02:12;97243.44;;;11.92;76.58
65614;BME280;52283;49.292;10.572;2023-05-27T05:04:48;97236.50;;;12.13;75.06
65614;BME280;52283;49.292;10.572;2023-05-27T05:07:16;97232.47;;;12.19;74.30
65614;BME280;52283;49.292;10.572;2023-05-27T05:09:43;97234.44;;;12.08;74.51
65614;BME280;52283;49.292;10.572;2023-05-27T05:12:09;97240.38;;;12.21;74.62
65614;BME280;52283;49.292;10.572;2023-05-27T05:14:35;97244.38;;;12.09;75.18
65614;BME280;52283;49.292;10.572;2023-05-27T05:17:02;97239.34;;;12.18;73.27
65614;BME280;52283;49.292;10.572;2023-05-27T05:19:29;97239.56;;;12.41;75.01
65614;BME280;52283;49.292;10.572;2023-05-27T05:21:56;97237.09;;;12.23;72.55
65614;BME280;52283;49.292;10.572;2023-05-27T05:24:23;97242.69;;;12.23;73.24
65614;BME280;52283;49.292;10.572;2023-05-27T05:26:49;97243.72;;;12.51;72.05
65614;BME280;52283;49.292;10.572;2023-05-27T05:29:15;97233.81;;;12.56;70.61
65614;BME280;52283;49.292;10.572;2023-05-27T05:31:42;97243.25;;;12.58;72.51
65614;BME280;52283;49.292;10.572;2023-05-27T05:34:10;97236.75;;;12.72;71.23
65614;BME280;52283;49.292;10.572;2023-05-27T05:36:37;97240.72;;;12.92;70.44
65614;BME280;52283;49.292;10.572;2023-05-27T05:39:04;97238.97;;;13.00;69.62
65614;BME280;52283;49.292;10.572;2023-05-27T05:41:31;97239.34;;;12.81;69.04
65614;BME280;52283;49.292;10.572;2023-05-27T05:43:58;97238.09;;;13.20;68.39
65614;BME280;52283;49.292;10.572;2023-05-27T05:46:24;97245.00;;;13.24;68.84
65614;BME280;52283;49.292;10.572;2023-05-27T05:48:51;97237.06;;;13.23;68.17
65614;BME280;52283;49.292;10.572;2023-05-27T05:51:18;97234.78;;;13.27;67.67
65614;BME280;52283;49.292;10.572;2023-05-27T05:53:44;97234.59;;;13.36;67.43
65614;BME280;52283;49.292;10.572;2023-05-27T05:56:12;97239.22;;;13.02;67.74
65614;BME280;52283;49.292;10.572;2023-05-27T05:58:39;97241.66;;;13.20;67.47
65614;BME280;52283;49.292;10.572;2023-05-27T06:01:05;97238.94;;;13.37;67.22
65614;BME280;52283;49.292;10.572;2023-05-27T06:03:32;97240.22;;;13.36;67.51
65614;BME280;52283;49.292;10.572;2023-05-27T06:05:58;97231.84;;;13.53;66.11
65614;BME280;52283;49.292;10.572;2023-05-27T06:08:25;97237.44;;;13.53;66.30
65614;BME280;52283;49.292;10.572;2023-05-27T06:10:51;97231.63;;;13.67;66.27
65614;BME280;52283;49.292;10.572;2023-05-27T06:13:19;97229.13;;;13.81;65.48
65614;BME280;52283;49.292;10.572;2023-05-27T06:15:45;97234.00;;;13.86;65.00
65614;BME280;52283;49.292;10.572;2023-05-27T06:18:12;97241.03;;;13.53;65.82
65614;BME280;52283;49.292;10.572;2023-05-27T06:20:38;97241.09;;;13.64;66.40
65614;BME280;52283;49.292;10.572;2023-05-27T06:23:05;97230.66;;;13.76;65.27
65614;BME280;52283;49.292;10.572;2023-05-27T06:25:31;97251.19;;;13.39;65.84
65614;BME280;52283;49.292;10.572;2023-05-27T06:27:58;97244.41;;;13.68;64.52
65614;BME280;52283;49.292;10.572;2023-05-27T06:30:26;97242.41;;;13.86;65.74
65614;BME280;52283;49.292;10.572;2023-05-27T06:32:53;97233.78;;;14.06;64.14
65614;BME280;52283;49.292;10.572;2023-05-27T06:35:19;97229.22;;;14.20;63.12
65614;BME280;52283;49.292;10.572;2023-05-27T06:37:46;97230.47;;;14.02;63.30
65614;BME280;52283;49.292;10.572;2023-05-27T06:40:12;97228.19;;;14.23;63.60
65614;BME280;52283;49.292;10.572;2023-05-27T06:42:39;97230.03;;;14.48;62.43
65614;BME280;52283;49.292;10.572;2023-05-27T06:45:07;97219.78;;;14.40;63.41
65614;BME280;52283;49.292;10.572;2023-05-27T06:47:35;97231.53;;;14.21;63.74
65614;BME280;52283;49.292;10.572;2023-05-27T06:50:01;97233.34;;;14.47;63.35
65614;BME280;52283;49.292;10.572;2023-05-27T06:52:28;97224.91;;;14.80;62.40
65614;BME280;52283;49.292;10.572;2023-05-27T06:54:55;97226.88;;;15.13;61.25
65614;BME280;52283;49.292;10.572;2023-05-27T06:57:21;97224.91;;;14.58;60.80
65614;BME280;52283;49.292;10.572;2023-05-27T06:59:48;97221.53;;;14.93;61.67
65614;BME280;52283;49.292;10.572;2023-05-27T07:02:15;97217.94;;;15.04;60.66
65614;BME280;52283;49.292;10.572;2023-05-27T07:04:42;97219.13;;;15.36;60.85
65614;BME280;52283;49.292;10.572;2023-05-27T07:07:09;97209.97;;;15.24;59.24
65614;BME280;52283;49.292;10.572;2023-05-27T07:09:35;97208.78;;;15.67;58.52
65614;BME280;52283;49.292;10.572;2023-05-27T07:12:02;97215.31;;;15.92;57.32
65614;BME280;52283;49.292;10.572;2023-05-27T07:14:29;97196.53;;;16.05;56.89
65614;BME280;52283;49.292;10.572;2023-05-27T07:16:55;97196.72;;;16.13;56.58
65614;BME280;52283;49.292;10.572;2023-05-27T07:19:22;97196.59;;;15.94;55.41
65614;BME280;52283;49.292;10.572;2023-05-27T07:21:50;97196.66;;;16.24;55.03
65614;BME280;52283;49.292;10.572;2023-05-27T07:24:16;97183.59;;;16.51;54.36
65614;BME280;52283;49.292;10.572;2023-05-27T07:26:43;97204.31;;;16.24;56.51
65614;BME280;52283;49.292;10.572;2023-05-27T07:29:09;97187.19;;;16.82;53.57
65614;BME280;52283;49.292;10.572;2023-05-27T07:31:37;97186.03;;;16.96;53.08
65614;BME280;52283;49.292;10.572;2023-05-27T07:34:03;97187.91;;;17.12;52.71
65614;BME280;52283;49.292;10.572;2023-05-27T07:36:30;97190.63;;;16.99;53.49
65614;BME280;52283;49.292;10.572;2023-05-27T07:38:57;97192.03;;;17.11;52.99
65614;BME280;52283;49.292;10.572;2023-05-27T07:41:24;97199.13;;;16.63;53.94
65614;BME280;52283;49.292;10.572;2023-05-27T07:43:51;97186.19;;;17.03;54.81
65614;BME280;52283;49.292;10.572;2023-05-27T07:46:17;97179.75;;;18.08;51.78
65614;BME280;52283;49.292;10.572;2023-05-27T07:48:44;97185.03;;;17.98;51.53
65614;BME280;52283;49.292;10.572;2023-05-27T07:51:10;97178.31;;;17.83;49.48
65614;BME280;52283;49.292;10.572;2023-05-27T07:53:37;97178.91;;;17.57;50.86
65614;BME280;52283;49.292;10.572;2023-05-27T07:56:05;97182.34;;;17.25;51.70
65614;BME280;52283;49.292;10.572;2023-05-27T07:58:31;97186.22;;;17.65;51.56
65614;BME280;52283;49.292;10.572;2023-05-27T08:00:58;97172.59;;;18.39;49.11
65614;BME280;52283;49.292;10.572;2023-05-27T08:03:24;97159.56;;;19.08;47.75
65614;BME280;52283;49.292;10.572;2023-05-27T08:05:51;97166.56;;;18.29;48.84
65614;BME280;52283;49.292;10.572;2023-05-27T08:08:17;97162.56;;;17.87;48.15
65614;BME280;52283;49.292;10.572;2023-05-27T08:10:44;97156.94;;;18.51;46.92
65614;BME280;52283;49.292;10.572;2023-05-27T08:13:13;97158.88;;;18.43;48.11
65614;BME280;52283;49.292;10.572;2023-05-27T08:15:39;97159.31;;;18.79;47.83
65614;BME280;52283;49.292;10.572;2023-05-27T08:18:05;97154.31;;;18.85;47.61
65614;BME280;52283;49.292;10.572;2023-05-27T08:20:33;97153.97;;;18.89;48.13
65614;BME280;52283;49.292;10.572;2023-05-27T08:22:59;97138.16;;;19.46;45.88
65614;BME280;52283;49.292;10.572;2023-05-27T08:25:26;97138.63;;;19.37;46.04
65614;BME280;52283;49.292;10.572;2023-05-27T08:27:53;97147.66;;;19.62;46.13
65614;BME280;52283;49.292;10.572;2023-05-27T08:30:23;97129.56;;;19.99;44.74
65614;BME280;52283;49.292;10.572;2023-05-27T08:32:51;97145.06;;;19.25;46.97
65614;BME280;52283;49.292;10.572;2023-05-27T08:35:17;97137.97;;;19.44;46.69
65614;BME280;52283;49.292;10.572;2023-05-27T08:37:45;97127.72;;;20.23;44.88
65614;BME280;52283;49.292;10.572;2023-05-27T08:40:13;97127.75;;;19.75;44.94
65614;BME280;52283;49.292;10.572;2023-05-27T08:42:40;97111.50;;;20.31;43.91
65614;BME280;52283;49.292;10.572;2023-05-27T08:45:08;97122.50;;;20.14;44.54
65614;BME280;52283;49.292;10.572;2023-05-27T08:47:37;97123.66;;;19.50;45.26
65614;BME280;52283;49.292;10.572;2023-05-27T08:50:04;97111.25;;;20.42;44.31
65614;BME280;52283;49.292;10.572;2023-05-27T08:52:32;97105.22;;;20.25;43.77
65614;BME280;52283;49.292;10.572;2023-05-27T08:55:01;97103.41;;;20.14;43.72
65614;BME280;52283;49.292;10.572;2023-05-27T08:57:29;97107.00;;;20.15;43.88
65614;BME280;52283;49.292;10.572;2023-05-27T08:59:57;97103.78;;;21.09;42.37
65614;BME280;52283;49.292;10.572;2023-05-27T09:02:24;97104.66;;;21.25;42.54
65614;BME280;52283;49.292;10.572;2023-05-27T09:04:52;97106.50;;;20.86;43.00
65614;BME280;52283;49.292;10.572;2023-05-27T09:07:19;97105.03;;;21.00;42.20
65614;BME280;52283;49.292;10.572;2023-05-27T09:09:54;97092.66;;;21.55;40.68
65614;BME280;52283;49.292;10.572;2023-05-27T09:12:22;97099.41;;;20.30;43.11
65614;BME280;52283;49.292;10.572;2023-05-27T09:14:49;97096.94;;;20.76;42.09
65614;BME280;52283;49.292;10.572;2023-05-27T09:17:15;97089.72;;;21.32;41.73
65614;BME280;52283;49.292;10.572;2023-05-27T09:19:44;97099.31;;;20.93;41.42
65614;BME280;52283;49.292;10.572;2023-05-27T09:22:20;97095.00;;;20.43;41.25
65614;BME280;52283;49.292;10.572;2023-05-27T09:24:47;97109.59;;;19.92;43.52
65614;BME280;52283;49.292;10.572;2023-05-27T09:27:13;97087.16;;;21.21;40.81
65614;BME280;52283;49.292;10.572;2023-05-27T09:29:39;97072.72;;;21.11;39.91
65614;BME280;52283;49.292;10.572;2023-05-27T09:32:06;97078.00;;;20.79;40.34
65614;BME280;52283;49.292;10.572;2023-05-27T09:34:37;97089.25;;;20.84;40.35
65614;BME280;52283;49.292;10.572;2023-05-27T09:37:04;97073.00;;;21.80;39.84
65614;BME280;52283;49.292;10.572;2023-05-27T09:39:32;97077.41;;;21.88;39.94
65614;BME280;52283;49.292;10.572;2023-05-27T09:42:00;97073.50;;;21.48;38.56
65614;BME280;52283;49.292;10.572;2023-05-27T09:44:27;97083.91;;;21.17;40.28
65614;BME280;52283;49.292;10.572;2023-05-27T09:46:56;97073.25;;;20.74;39.21
65614;BME280;52283;49.292;10.572;2023-05-27T09:49:25;97081.88;;;20.19;41.01
65614;BME280;52283;49.292;10.572;2023-05-27T09:51:53;97078.94;;;21.38;39.50
65614;BME280;52283;49.292;10.572;2023-05-27T09:54:21;97069.13;;;22.21;38.42
65614;BME280;52283;49.292;10.572;2023-05-27T09:56:49;97055.81;;;22.46;36.90
65614;BME280;52283;49.292;10.572;2023-05-27T09:59:17;97053.53;;;22.83;37.29
65614;BME280;52283;49.292;10.572;2023-05-27T10:01:45;97066.09;;;21.45;37.76
65614;BME280;52283;49.292;10.572;2023-05-27T10:04:13;97060.91;;;21.95;39.66
65614;BME280;52283;49.292;10.572;2023-05-27T10:06:40;97058.97;;;20.17;39.25
65614;BME280;52283;49.292;10.572;2023-05-27T10:09:07;97064.88;;;21.25;38.99
65614;BME280;52283;49.292;10.572;2023-05-27T10:11:34;97060.78;;;21.49;41.04
65614;BME280;52283;49.292;10.572;2023-05-27T10:14:04;97045.78;;;22.07;36.87
65614;BME280;52283;49.292;10.572;2023-05-27T10:16:31;97047.69;;;22.12;38.81
65614;BME280;52283;49.292;10.572;2023-05-27T10:18:58;97037.06;;;22.28;36.39
65614;BME280;52283;49.292;10.572;2023-05-27T10:21:27;97036.03;;;22.79;36.29
65614;BME280;52283;49.292;10.572;2023-05-27T10:23:56;97039.31;;;22.14;36.46
65614;BME280;52283;49.292;10.572;2023-05-27T10:26:31;97037.59;;;22.27;35.22
65614;BME280;52283;49.292;10.572;2023-05-27T10:29:06;97033.44;;;22.05;35.36
65614;BME280;52283;49.292;10.572;2023-05-27T10:31:33;97040.47;;;22.19;36.24
65614;BME280;52283;49.292;10.572;2023-05-27T10:34:03;97030.03;;;22.52;36.58
65614;BME280;52283;49.292;10.572;2023-05-27T10:36:31;97026.81;;;23.66;35.90
65614;BME280;52283;49.292;10.572;2023-05-27T10:39:00;97023.69;;;21.85;37.28
65614;BME280;52283;49.292;10.572;2023-05-27T10:41:28;97029.81;;;22.42;37.21
65614;BME280;52283;49.292;10.572;2023-05-27T10:43:55;97019.47;;;23.08;35.89
65614;BME280;52283;49.292;10.572;2023-05-27T10:46:24;97033.97;;;21.96;36.84
65614;BME280;52283;49.292;10.572;2023-05-27T10:48:51;97022.38;;;22.85;36.35
65614;BME280;52283;49.292;10.572;2023-05-27T10:51:17;97013.94;;;23.50;35.60
65614;BME280;52283;49.292;10.572;2023-05-27T10:53:46;97015.06;;;23.62;35.64
65614;BME280;52283;49.292;10.572;2023-05-27T10:56:12;97026.97;;;22.42;38.40
65614;BME280;52283;49.292;10.572;2023-05-27T10:58:39;97035.53;;;21.38;40.29
65614;BME280;52283;49.292;10.572;2023-05-27T11:01:09;97027.81;;;21.46;39.43
65614;BME280;52283;49.292;10.572;2023-05-27T11:03:43;97003.00;;;22.68;36.18
65614;BME280;52283;49.292;10.572;2023-05-27T11:06:11;97023.50;;;21.83;38.51
65614;BME280;52283;49.292;10.572;2023-05-27T11:08:38;97011.59;;;22.45;36.82
65614;BME280;52283;49.292;10.572;2023-05-27T11:11:06;97026.34;;;22.90;39.71
65614;BME280;52283;49.292;10.572;2023-05-27T11:13:34;96994.91;;;23.20;35.19
65614;BME280;52283;49.292;10.572;2023-05-27T11:16:03;96991.97;;;22.80;35.50
65614;BME280;52283;49.292;10.572;2023-05-27T11:18:40;96999.47;;;23.88;36.58
65614;BME280;52283;49.292;10.572;2023-05-27T11:21:10;97001.13;;;23.99;36.02
65614;BME280;52283;49.292;10.572;2023-05-27T11:23:37;97005.50;;;22.64;37.06
65614;BME280;52283;49.292;10.572;2023-05-27T11:26:10;96999.56;;;23.40;39.93
65614;BME280;52283;49.292;10.572;2023-05-27T11:28:37;96994.09;;;22.64;36.00
65614;BME280;52283;49.292;10.572;2023-05-27T11:31:03;96983.91;;;23.57;34.79
65614;BME280;52283;49.292;10.572;2023-05-27T11:33:30;96981.16;;;23.34;36.02
65614;BME280;52283;49.292;10.572;2023-05-27T11:36:03;96984.94;;;22.96;37.94
65614;BME280;52283;49.292;10.572;2023-05-27T11:38:31;96974.16;;;24.17;37.04
65614;BME280;52283;49.292;10.572;2023-05-27T11:41:06;96959.53;;;24.90;34.01
65614;BME280;52283;49.292;10.572;2023-05-27T11:43:33;96952.53;;;25.18;32.90
65614;BME280;52283;49.292;10.572;2023-05-27T11:46:02;96949.44;;;24.12;33.20
65614;BME280;52283;49.292;10.572;2023-05-27T11:48:29;96957.00;;;23.92;32.54
65614;BME280;52283;49.292;10.572;2023-05-27T11:50:56;96954.41;;;23.62;33.08
65614;BME280;52283;49.292;10.572;2023-05-27T11:53:22;96942.69;;;23.10;32.42
65614;BME280;52283;49.292;10.572;2023-05-27T11:55:50;96946.38;;;22.80;33.19
65614;BME280;52283;49.292;10.572;2023-05-27T11:58:16;96938.41;;;22.94;31.05
65614;BME280;52283;49.292;10.572;2023-05-27T12:00:43;96927.66;;;24.93;28.50
65614;BME280;52283;49.292;10.572;2023-05-27T12:03:09;96930.94;;;23.38;30.64
65614;BME280;52283;49.292;10.572;2023-05-27T12:05:36;96927.59;;;22.77;30.23
65614;BME280;52283;49.292;10.572;2023-05-27T12:08:02;96935.13;;;21.96;31.68
65614;BME280;52283;49.292;10.572;2023-05-27T12:10:30;96940.47;;;22.15;32.29
65614;BME280;52283;49.292;10.572;2023-05-27T12:13:03;96922.63;;;21.91;31.37
65614;BME280;52283;49.292;10.572;2023-05-27T12:15:30;96920.69;;;23.03;30.78
65614;BME280;52283;49.292;10.572;2023-05-27T12:17:56;96929.44;;;22.97;31.47
65614;BME280;52283;49.292;10.572;2023-05-27T12:20:23;96911.03;;;23.63;29.19
65614;BME280;52283;49.292;10.572;2023-05-27T12:22:52;96917.69;;;23.33;31.02
65614;BME280;52283;49.292;10.572;2023-05-27T12:25:19;96916.75;;;24.48;31.68
65614;BME280;52283;49.292;10.572;2023-05-27T12:27:45;96908.41;;;24.25;29.86
65614;BME280;52283;49.292;10.572;2023-05-27T12:30:13;96897.78;;;24.00;29.02
65614;BME280;52283;49.292;10.572;2023-05-27T12:32:40;96899.22;;;23.02;30.26
65614;BME280;52283;49.292;10.572;2023-05-27T12:35:07;96893.63;;;23.44;29.87
65614;BME280;52283;49.292;10.572;2023-05-27T12:37:34;96895.75;;;22.63;30.30
65614;BME280;52283;49.292;10.572;2023-05-27T12:40:00;96885.91;;;23.37;29.82
65614;BME280;52283;49.292;10.572;2023-05-27T12:42:30;96886.41;;;23.76;29.62
65614;BME280;52283;49.292;10.572;2023-05-27T12:44:57;96885.72;;;24.27;29.11
65614;BME280;52283;49.292;10.572;2023-05-27T12:47:25;96890.19;;;24.55;30.39
65614;BME280;52283;49.292;10.572;2023-05-27T12:49:52;96881.31;;;23.66;29.65
65614;BME280;52283;49.292;10.572;2023-05-27T12:52:18;96886.25;;;23.91;31.51